Time;durP1;ratioP1;P1;durP2;ratioP2;P2;SDS_P1;SDS_P2;PMS_P1;PMS_P2;Temp;Humidity;BMP_temperature;BMP_pressure;BME280_temperature;BME280_humidity;BME280_pressure;Samples;Min_cycle;Max_cycle;Signal;HPM_P1;HPM_P2
2022/06/05 00:02:14;;;;;;;11.13;6.78;;;14.60;99.90;;;;;;7409305;19;20011;-90
2022/06/05 00:04:50;;;;;;;11.63;7.40;;;14.60;99.90;;;;;;7409372;19;20022;-88
2022/06/05 00:07:27;;;;;;;11.70;7.25;;;14.60;99.90;;;;;;7409136;19;20007;-88
2022/06/05 00:10:04;;;;;;;11.38;7.25;;;14.50;99.90;;;;;;7407682;19;20006;-91
2022/06/05 00:12:42;;;;;;;13.77;6.80;;;13.10;99.90;;;;;;7408073;19;20011;-89
2022/06/05 00:15:14;;;;;;;11.27;7.40;;;14.30;99.90;;;;;;7407524;19;20019;-89
2022/06/05 00:17:49;;;;;;;11.57;7.10;;;14.20;99.90;;;;;;7407766;19;20011;-90
2022/06/05 00:20:20;;;;;;;12.85;6.97;;;14.20;99.90;;;;;;7406352;19;20018;-88
2022/06/05 00:22:51;;;;;;;9.75;6.90;;;14.20;99.90;;;;;;7406582;19;20006;-88
2022/06/05 00:25:22;;;;;;;11.10;6.63;;;14.10;99.90;;;;;;7408666;19;20354;-91
2022/06/05 00:28:00;;;;;;;11.68;6.45;;;13.80;99.90;;;;;;7408876;19;20375;-88
2022/06/05 00:30:37;;;;;;;11.20;6.70;;;14.10;99.90;;;;;;7406187;19;20010;-88
2022/06/05 00:33:16;;;;;;;10.35;6.93;;;14.20;99.90;;;;;;7403967;19;20363;-89
2022/06/05 00:35:54;;;;;;;12.65;6.63;;;14.20;99.90;;;;;;7405495;19;20058;-88
2022/06/05 00:38:33;;;;;;;12.13;7.30;;;14.10;99.90;;;;;;7405264;19;20014;-89
2022/06/05 00:41:27;;;;;;;11.85;6.63;;;13.90;99.90;;;;;;7403864;19;20042;-89
2022/06/05 00:44:01;;;;;;;10.32;6.72;;;14.20;99.90;;;;;;7409317;19;20010;-90
2022/06/05 00:46:33;;;;;;;13.85;7.03;;;14.10;99.90;;;;;;7406506;19;20027;-89
2022/06/05 00:49:08;;;;;;;10.63;6.88;;;14.10;99.90;;;;;;7403290;19;20011;-89
2022/06/05 00:51:38;;;;;;;14.10;7.07;;;13.90;99.90;;;;;;7405185;19;20003;-89
2022/06/05 00:54:09;;;;;;;9.32;6.70;;;13.90;99.90;;;;;;7405210;19;20007;-89
2022/06/05 00:56:41;;;;;;;13.93;7.43;;;14.00;99.90;;;;;;7406384;19;20078;-89
2022/06/05 00:59:15;;;;;;;13.07;7.40;;;13.90;99.90;;;;;;7405688;19;20018;-90
2022/06/05 01:01:46;;;;;;;11.32;7.05;;;13.80;99.90;;;;;;7405512;19;20046;-89
2022/06/05 01:04:21;;;;;;;9.85;6.90;;;13.90;99.90;;;;;;7407150;19;20022;-88
2022/06/05 01:06:52;;;;;;;9.65;6.57;;;13.80;99.90;;;;;;7405434;19;20025;-89
2022/06/05 01:09:23;;;;;;;12.25;6.65;;;13.70;99.90;;;;;;7404879;19;20007;-89
2022/06/05 01:12:01;;;;;;;10.55;7.03;;;13.70;99.90;;;;;;7407035;19;20017;-89
2022/06/05 01:14:47;;;;;;;10.82;6.93;;;13.70;99.90;;;;;;7407910;19;20018;-89
2022/06/05 01:17:26;;;;;;;12.25;7.38;;;13.70;99.90;;;;;;7408070;19;20029;-89
2022/06/05 01:20:09;;;;;;;11.10;7.40;;;13.90;99.90;;;;;;7406246;19;20011;-90
2022/06/05 01:23:10;;;;;;;11.13;7.20;;;12.40;99.90;;;;;;7406146;19;20502;-89
2022/06/05 01:26:06;;;;;;;11.57;7.80;;;13.70;99.90;;;;;;7406518;19;20011;-88
2022/06/05 01:28:42;;;;;;;12.95;7.82;;;13.30;99.90;;;;;;7403193;19;20462;-88
2022/06/05 01:31:19;;;;;;;13.80;8.73;;;13.60;99.90;;;;;;7403736;19;20011;-90
2022/06/05 01:34:00;;;;;;;12.50;7.88;;;13.60;99.90;;;;;;7407576;19;20011;-89
2022/06/05 01:36:38;;;;;;;15.40;8.02;;;13.60;99.90;;;;;;7405635;19;20014;-90
2022/06/05 01:39:13;;;;;;;10.50;8.07;;;13.70;99.90;;;;;;7405082;19;20007;-90
2022/06/05 01:41:51;;;;;;;12.88;8.05;;;13.50;99.90;;;;;;7406109;19;20074;-90
2022/06/05 01:44:26;;;;;;;12.52;7.68;;;13.60;99.90;;;;;;7407812;19;20086;-90
2022/06/05 01:46:58;;;;;;;16.15;7.78;;;13.50;99.90;;;;;;7403866;19;20046;-90
2022/06/05 01:49:34;;;;;;;12.23;8.80;;;13.50;99.90;;;;;;7404284;19;20062;-89
2022/06/05 01:52:19;;;;;;;13.00;7.93;;;13.60;99.90;;;;;;7403682;19;20366;-90
2022/06/05 01:54:55;;;;;;;14.02;7.93;;;13.50;99.90;;;;;;7404438;19;20042;-89
2022/06/05 01:57:30;;;;;;;10.25;7.82;;;13.70;99.90;;;;;;7403656;19;20006;-90
2022/06/05 02:00:08;;;;;;;15.00;8.75;;;13.60;99.90;;;;;;7402130;19;20017;-88
2022/06/05 02:02:43;;;;;;;13.98;8.77;;;13.50;99.90;;;;;;7403882;19;20011;-89
2022/06/05 02:05:16;;;;;;;10.55;7.65;;;13.50;99.90;;;;;;7407069;19;20074;-90
2022/06/05 02:07:51;;;;;;;15.00;8.90;;;13.50;99.90;;;;;;7406631;19;20010;-90
2022/06/05 02:10:27;;;;;;;13.70;8.27;;;13.50;99.90;;;;;;7401378;19;20375;-89
2022/06/05 02:13:02;;;;;;;13.07;8.20;;;13.30;99.90;;;;;;7402836;19;20043;-89
2022/06/05 02:15:35;;;;;;;15.27;8.68;;;13.30;99.90;;;;;;7403129;19;20010;-89
2022/06/05 02:18:07;;;;;;;13.18;8.45;;;13.50;99.90;;;;;;7402841;19;20018;-90
2022/06/05 02:20:40;;;;;;;12.55;8.52;;;13.30;99.90;;;;;;7402585;19;20043;-89
2022/06/05 02:23:15;;;;;;;16.95;8.68;;;12.90;99.90;;;;;;7401877;19;20041;-90
2022/06/05 02:25:46;;;;;;;13.68;8.82;;;13.30;99.90;;;;;;7403916;19;20007;-89
2022/06/05 02:28:22;;;;;;;11.70;7.95;;;13.30;99.90;;;;;;7401849;19;20006;-90
2022/06/05 02:31:00;;;;;;;14.07;8.45;;;13.30;99.90;;;;;;7400115;19;20038;-91
2022/06/05 02:33:40;;;;;;;13.77;8.80;;;13.20;99.90;;;;;;7404273;19;20384;-89
2022/06/05 02:36:27;;;;;;;15.30;8.55;;;13.30;99.90;;;;;;7405234;19;20517;-89
2022/06/05 02:39:06;;;;;;;15.02;8.35;;;13.20;99.90;;;;;;7401998;19;20011;-90
2022/06/05 02:41:46;;;;;;;14.75;8.57;;;13.30;99.90;;;;;;7403864;19;20501;-90
2022/06/05 02:44:34;;;;;;;12.15;8.32;;;13.30;99.90;;;;;;7401992;19;20010;-91
2022/06/05 02:47:23;;;;;;;17.35;8.85;;;13.30;99.90;;;;;;7403489;19;20074;-90
2022/06/05 02:49:58;;;;;;;14.13;8.40;;;13.10;99.90;;;;;;7400709;19;20015;-91
2022/06/05 02:52:34;;;;;;;14.93;8.10;;;13.10;99.90;;;;;;7400225;19;20006;-89
2022/06/05 02:55:10;;;;;;;15.40;8.93;;;13.20;99.90;;;;;;7406046;19;20011;-90
2022/06/05 02:57:41;;;;;;;14.80;8.63;;;13.20;99.90;;;;;;7408757;19;20019;-90
2022/06/05 03:00:17;;;;;;;13.05;8.65;;;13.20;99.90;;;;;;7405626;19;20014;-90
2022/06/05 03:05:37;;;;;;;15.65;8.55;;;13.20;99.90;;;;;;7416158;19;20010;-91
2022/06/05 03:08:10;;;;;;;15.45;8.75;;;13.10;99.90;;;;;;7411752;19;20039;-91
2022/06/05 03:10:41;;;;;;;16.83;9.07;;;13.20;99.90;;;;;;7409662;19;20010;-90
2022/06/05 03:13:12;;;;;;;14.27;8.65;;;13.10;99.90;;;;;;7411936;19;20029;-90
2022/06/05 03:15:45;;;;;;;14.02;8.45;;;13.20;99.90;;;;;;7414901;19;20031;-90
2022/06/05 03:18:18;;;;;;;14.50;8.23;;;12.80;99.90;;;;;;7410509;19;20424;-91
2022/06/05 03:20:49;;;;;;;16.10;8.68;;;13.10;99.90;;;;;;7412534;19;20010;-89
2022/06/05 03:23:19;;;;;;;14.57;8.70;;;13.10;99.90;;;;;;7409812;19;20006;-91
2022/06/05 03:25:49;;;;;;;14.45;9.15;;;12.90;99.90;;;;;;7415804;19;20010;-91
2022/06/05 03:28:21;;;;;;;14.55;8.70;;;12.80;99.90;;;;;;7409400;19;20414;-91
2022/06/05 03:30:55;;;;;;;13.90;8.73;;;13.10;99.90;;;;;;7408289;19;20006;-89
2022/06/05 03:33:25;;;;;;;16.58;9.13;;;12.90;99.90;;;;;;7415760;19;20097;-91
2022/06/05 03:35:58;;;;;;;16.35;9.35;;;13.00;99.90;;;;;;7412923;19;20015;-91
2022/06/05 03:38:29;;;;;;;15.63;8.65;;;12.80;99.90;;;;;;7408862;19;20017;-90
2022/06/05 03:41:00;;;;;;;16.05;8.82;;;13.00;99.90;;;;;;7408624;19;20011;-89
2022/06/05 03:43:31;;;;;;;16.10;9.65;;;13.10;99.90;;;;;;7413388;19;20022;-91
2022/06/05 03:46:11;;;;;;;16.13;8.95;;;13.00;99.90;;;;;;7409260;19;20051;-91
2022/06/05 03:48:42;;;;;;;21.30;9.85;;;13.10;99.90;;;;;;7410690;19;20022;-91
2022/06/05 03:51:14;;;;;;;18.27;9.00;;;13.10;99.90;;;;;;7407971;19;20014;-91
2022/06/05 03:53:46;;;;;;;14.38;9.10;;;13.20;99.90;;;;;;7410331;19;20006;-89
2022/06/05 03:56:18;;;;;;;16.45;9.20;;;13.00;99.90;;;;;;7410956;19;20026;-88
2022/06/05 03:58:50;;;;;;;15.07;9.63;;;13.10;99.90;;;;;;7407575;19;20015;-92
2022/06/05 04:01:27;;;;;;;19.23;9.48;;;13.20;99.90;;;;;;7410796;19;20014;-90
2022/06/05 04:03:59;;;;;;;16.35;8.82;;;13.20;99.90;;;;;;7410606;19;20007;-91
2022/06/05 04:06:32;;;;;;;17.25;9.73;;;13.20;99.90;;;;;;7410868;19;20014;-90
2022/06/05 04:09:09;;;;;;;16.15;9.57;;;13.10;99.90;;;;;;7407709;19;20010;-90
2022/06/05 04:11:43;;;;;;;17.85;10.13;;;13.20;99.90;;;;;;7406470;19;20475;-91
2022/06/05 04:14:15;;;;;;;15.68;9.85;;;13.20;99.90;;;;;;7407661;19;20015;-90
2022/06/05 04:16:51;;;;;;;14.45;9.77;;;13.10;99.90;;;;;;7407986;19;20014;-89
2022/06/05 04:19:25;;;;;;;15.93;9.50;;;13.20;99.90;;;;;;7407849;19;20474;-91
2022/06/05 04:21:55;;;;;;;18.00;9.80;;;13.20;99.90;;;;;;7408535;19;20007;-91
2022/06/05 04:24:26;;;;;;;15.52;9.93;;;13.10;99.90;;;;;;7411802;19;20011;-90
2022/06/05 04:26:58;;;;;;;17.98;9.48;;;13.40;99.90;;;;;;7407683;19;20343;-91
2022/06/05 04:29:32;;;;;;;20.95;10.38;;;13.40;99.90;;;;;;7408723;19;20018;-91
2022/06/05 04:32:07;;;;;;;16.52;10.02;;;13.10;99.90;;;;;;7406071;19;20054;-90
2022/06/05 04:34:38;;;;;;;17.90;9.88;;;13.20;99.90;;;;;;7407619;19;20014;-91
2022/06/05 04:37:09;;;;;;;16.70;10.15;;;13.20;99.90;;;;;;7407384;19;20025;-90
2022/06/05 04:39:39;;;;;;;16.00;10.25;;;13.30;99.90;;;;;;7406482;19;20007;-91
2022/06/05 04:42:10;;;;;;;15.48;10.25;;;13.20;99.90;;;;;;7405785;19;20014;-91
2022/06/05 04:44:43;;;;;;;17.70;9.98;;;13.30;99.90;;;;;;7406323;19;20038;-90
2022/06/05 04:47:17;;;;;;;17.95;10.13;;;13.30;99.90;;;;;;7405448;19;20347;-91
2022/06/05 04:49:47;;;;;;;18.48;9.63;;;13.50;99.90;;;;;;7405299;19;20011;-91
2022/06/05 04:52:20;;;;;;;17.30;9.93;;;13.40;99.90;;;;;;7404760;19;20018;-92
2022/06/05 04:54:50;;;;;;;17.35;10.27;;;13.40;99.90;;;;;;7405378;19;20021;-90
2022/06/05 04:57:22;;;;;;;17.55;9.52;;;13.60;99.90;;;;;;7407759;19;20038;-91
2022/06/05 04:59:54;;;;;;;18.70;10.38;;;13.30;99.90;;;;;;7404628;19;20482;-91
2022/06/05 05:02:29;;;;;;;15.20;9.48;;;13.70;99.90;;;;;;7407628;19;20016;-90
2022/06/05 05:05:00;;;;;;;18.30;10.20;;;13.60;99.90;;;;;;7405262;19;20010;-91
2022/06/05 05:07:32;;;;;;;17.25;10.27;;;13.50;99.90;;;;;;7404442;19;20529;-90
2022/06/05 05:10:03;;;;;;;19.25;10.85;;;13.50;99.90;;;;;;7404674;19;20151;-89
2022/06/05 05:12:34;;;;;;;17.67;10.43;;;13.40;99.90;;;;;;7405107;19;20086;-91
2022/06/05 05:15:07;;;;;;;17.75;9.73;;;13.60;99.90;;;;;;7408700;19;20003;-90
2022/06/05 05:17:41;;;;;;;19.80;10.45;;;13.60;99.90;;;;;;7404377;19;20015;-91
2022/06/05 05:20:14;;;;;;;17.15;10.77;;;13.60;99.90;;;;;;7404733;19;20034;-91
2022/06/05 05:22:45;;;;;;;18.10;10.07;;;13.70;99.90;;;;;;7405691;19;20007;-91
2022/06/05 05:25:16;;;;;;;17.75;9.70;;;13.80;99.90;;;;;;7409922;19;20497;-90
2022/06/05 05:27:47;;;;;;;16.90;9.48;;;13.90;99.90;;;;;;7405138;19;20085;-91
2022/06/05 05:30:21;;;;;;;18.25;10.20;;;13.90;99.90;;;;;;7404095;19;20013;-91
2022/06/05 05:32:56;;;;;;;19.02;11.10;;;13.90;99.90;;;;;;7403945;19;20022;-90
2022/06/05 05:35:27;;;;;;;17.77;9.95;;;13.90;99.90;;;;;;7404458;19;20007;-91
2022/06/05 05:37:57;;;;;;;16.10;10.38;;;13.80;99.90;;;;;;7405822;19;20017;-89
2022/06/05 05:43:16;;;;;;;17.38;10.57;;;14.10;99.90;;;;;;7409235;19;20027;-92
2022/06/05 05:45:49;;;;;;;16.00;9.70;;;14.10;99.90;;;;;;7411192;19;20034;-91
2022/06/05 05:48:22;;;;;;;18.27;11.40;;;14.20;99.90;;;;;;7412805;19;20259;-92
2022/06/05 05:50:54;;;;;;;16.50;10.48;;;14.40;99.90;;;;;;7398168;19;20014;-92
2022/06/05 05:53:24;;;;;;;16.77;10.60;;;14.40;99.90;;;;;;7398970;19;20014;-91
2022/06/05 05:55:55;;;;;;;15.18;9.75;;;14.40;99.90;;;;;;7398166;19;20011;-92
2022/06/05 05:58:27;;;;;;;13.13;9.00;;;14.40;99.90;;;;;;7397384;19;20006;-91
2022/06/05 06:01:05;;;;;;;15.70;9.45;;;14.50;99.90;;;;;;7401525;19;20350;-91
2022/06/05 06:03:39;;;;;;;14.35;9.45;;;14.60;99.90;;;;;;7400197;19;20015;-91
2022/06/05 06:06:10;;;;;;;14.95;9.68;;;14.80;99.90;;;;;;7400995;19;20007;-91
2022/06/05 06:08:41;;;;;;;16.25;9.60;;;14.80;99.90;;;;;;7398619;19;20007;-91
2022/06/05 06:11:12;;;;;;;15.50;10.15;;;14.70;99.90;;;;;;7401664;19;20038;-92
2022/06/05 06:13:44;;;;;;;13.88;9.25;;;14.80;99.90;;;;;;7405675;19;20022;-91
2022/06/05 06:16:15;;;;;;;17.50;9.52;;;14.80;99.90;;;;;;7401354;19;20018;-91
2022/06/05 06:18:48;;;;;;;15.93;9.43;;;14.80;99.90;;;;;;7398111;19;20002;-91
2022/06/05 06:21:21;;;;;;;16.20;9.77;;;14.90;99.90;;;;;;7406018;19;20031;-90
2022/06/05 06:23:52;;;;;;;16.17;9.85;;;15.10;99.90;;;;;;7408374;19;20101;-90
2022/06/05 06:26:23;;;;;;;14.30;9.20;;;14.90;99.90;;;;;;7397261;19;20015;-92
2022/06/05 06:28:54;;;;;;;13.63;9.50;;;15.10;99.90;;;;;;7400703;19;20007;-91
2022/06/05 06:31:25;;;;;;;11.88;8.50;;;15.10;99.90;;;;;;7394285;19;20030;-91
2022/06/05 06:33:58;;;;;;;14.57;9.52;;;15.20;99.90;;;;;;7401466;19;20034;-91
2022/06/05 06:36:29;;;;;;;13.65;9.13;;;15.10;99.90;;;;;;7399622;19;20017;-91
2022/06/05 06:39:01;;;;;;;18.60;9.50;;;15.20;99.90;;;;;;7407213;19;20015;-91
2022/06/05 06:41:31;;;;;;;15.00;8.95;;;15.20;99.90;;;;;;7402062;19;20388;-91
2022/06/05 06:44:04;;;;;;;13.02;9.40;;;15.30;99.90;;;;;;7397315;19;20010;-91
2022/06/05 06:46:36;;;;;;;13.93;9.00;;;15.30;99.90;;;;;;7404350;19;20011;-91
2022/06/05 06:49:09;;;;;;;14.68;9.07;;;15.50;99.90;;;;;;7397443;19;20002;-90
2022/06/05 06:51:41;;;;;;;14.65;9.75;;;15.40;99.90;;;;;;7402837;19;20035;-90
2022/06/05 06:54:12;;;;;;;16.05;9.07;;;15.40;99.90;;;;;;7403912;19;20011;-91
2022/06/05 06:56:43;;;;;;;12.70;8.98;;;15.50;99.90;;;;;;7399158;19;20112;-90
2022/06/05 06:59:15;;;;;;;13.52;8.68;;;15.70;99.90;;;;;;7396452;19;20473;-91
2022/06/05 07:01:46;;;;;;;15.25;10.18;;;15.70;99.90;;;;;;7397557;19;20470;-91
2022/06/05 07:04:21;;;;;;;14.30;9.73;;;15.70;99.90;;;;;;7396329;19;20013;-91
2022/06/05 07:06:53;;;;;;;16.05;9.25;;;15.70;99.90;;;;;;7399790;19;20022;-91
2022/06/05 07:09:25;;;;;;;14.88;9.57;;;15.80;99.90;;;;;;7403956;19;20011;-90
2022/06/05 07:11:56;;;;;;;14.35;9.38;;;15.90;99.90;;;;;;7393652;19;20047;-91
2022/06/05 07:14:27;;;;;;;14.60;9.30;;;15.80;99.90;;;;;;7410081;19;20010;-91
2022/06/05 07:16:58;;;;;;;13.82;9.07;;;16.20;99.90;;;;;;7396732;19;20010;-91
2022/06/05 07:19:33;;;;;;;13.02;9.18;;;16.00;99.90;;;;;;7401040;19;20014;-90
2022/06/05 07:22:07;;;;;;;13.95;9.23;;;16.20;99.90;;;;;;7406213;19;20476;-91
2022/06/05 07:24:40;;;;;;;12.90;8.52;;;16.00;99.90;;;;;;7404548;19;20011;-91
2022/06/05 07:27:12;;;;;;;14.75;8.75;;;14.40;99.90;;;;;;7400382;19;20094;-91
2022/06/05 07:29:45;;;;;;;13.73;8.68;;;16.30;99.90;;;;;;7398569;19;20043;-91
2022/06/05 07:32:17;;;;;;;13.52;8.38;;;16.30;99.90;;;;;;7395387;19;20021;-90
2022/06/05 07:34:50;;;;;;;12.07;7.95;;;16.50;99.90;;;;;;7396994;19;20007;-90
2022/06/05 07:37:21;;;;;;;13.02;8.25;;;16.50;99.90;;;;;;7403151;19;20011;-91
2022/06/05 07:39:53;;;;;;;13.15;8.30;;;16.50;99.90;;;;;;7404597;19;20010;-90
2022/06/05 07:42:24;;;;;;;11.27;8.45;;;16.50;99.90;;;;;;7400332;19;20010;-90
2022/06/05 07:44:56;;;;;;;13.90;8.40;;;16.60;99.90;;;;;;7407937;19;20014;-90
2022/06/05 07:47:27;;;;;;;10.27;7.93;;;16.60;99.90;;;;;;7409976;19;20027;-90
2022/06/05 07:50:04;;;;;;;12.35;8.10;;;16.70;99.90;;;;;;7411645;19;20024;-90
2022/06/05 07:55:22;;;;;;;12.05;8.32;;;16.80;99.90;;;;;;7407111;19;20007;-91
2022/06/05 07:57:58;;;;;;;10.57;7.97;;;16.80;99.90;;;;;;7407873;19;20010;-90
2022/06/05 08:00:30;;;;;;;11.50;7.70;;;16.80;99.90;;;;;;7399610;19;20050;-90
2022/06/05 08:03:02;;;;;;;11.77;8.60;;;17.00;99.90;;;;;;7405017;19;20038;-90
2022/06/05 08:05:36;;;;;;;12.75;8.10;;;17.00;99.90;;;;;;7414284;19;20023;-90
2022/06/05 08:08:09;;;;;;;11.90;7.47;;;17.10;99.90;;;;;;7412373;19;20018;-90
2022/06/05 08:10:40;;;;;;;10.80;7.70;;;17.20;99.90;;;;;;7407835;19;20027;-88
2022/06/05 08:13:12;;;;;;;10.43;7.20;;;17.10;99.90;;;;;;7406805;19;20110;-89
2022/06/05 08:15:46;;;;;;;11.65;7.72;;;17.20;99.90;;;;;;7407650;19;20086;-89
2022/06/05 08:18:17;;;;;;;8.87;7.00;;;17.40;99.90;;;;;;7407864;19;20014;-89
2022/06/05 08:20:52;;;;;;;10.93;7.45;;;17.50;99.90;;;;;;7411991;19;20010;-88
2022/06/05 08:23:26;;;;;;;10.85;7.50;;;17.70;99.90;;;;;;7406747;19;20014;-89
2022/06/05 08:25:57;;;;;;;9.13;7.13;;;17.70;99.90;;;;;;7406608;19;20453;-88
2022/06/05 08:28:28;;;;;;;10.88;7.28;;;17.70;99.90;;;;;;7405764;19;20014;-89
2022/06/05 08:31:01;;;;;;;10.93;6.90;;;17.80;99.90;;;;;;7407161;19;20011;-90
2022/06/05 08:33:33;;;;;;;10.05;7.03;;;17.70;99.90;;;;;;7407133;19;20030;-88
2022/06/05 08:36:08;;;;;;;10.75;7.15;;;17.90;99.90;;;;;;7406844;19;20011;-89
2022/06/05 08:41:37;;;;;;;8.15;6.88;;;18.00;99.90;;;;;;7405624;19;20014;-90
2022/06/05 08:44:19;;;;;;;8.30;6.60;;;18.00;99.90;;;;;;7405588;19;20010;-89
2022/06/05 08:46:55;;;;;;;8.05;6.75;;;18.10;99.90;;;;;;7406831;19;20066;-88
2022/06/05 08:49:38;;;;;;;10.63;6.63;;;18.20;99.90;;;;;;7406387;19;20018;-89
2022/06/05 08:52:27;;;;;;;9.23;6.75;;;18.20;99.90;;;;;;7402845;19;20010;-89
2022/06/05 08:55:03;;;;;;;;;;;18.30;99.90;;;;;;7408204;19;20011;-89
2022/06/05 08:57:41;;;;;;;8.13;6.73;;;18.20;99.90;;;;;;7403994;19;19915;-89
2022/06/05 09:00:21;;;;;;;9.48;7.07;;;18.40;99.90;;;;;;7403690;19;20287;-88
2022/06/05 09:02:58;;;;;;;11.05;6.88;;;18.30;99.90;;;;;;7405297;19;20014;-89
2022/06/05 09:05:33;;;;;;;10.40;7.03;;;18.60;99.90;;;;;;7404509;19;20070;-88
2022/06/05 09:08:11;;;;;;;9.27;6.97;;;18.60;99.90;;;;;;7403886;19;20086;-90
2022/06/05 09:10:45;;;;;;;8.95;7.05;;;18.70;99.90;;;;;;7403774;19;20017;-89
2022/06/05 09:13:19;;;;;;;7.73;6.67;;;18.60;99.90;;;;;;7404364;19;20065;-88
2022/06/05 09:16:00;;;;;;;9.18;7.22;;;18.80;99.90;;;;;;7405839;19;20015;-88
2022/06/05 09:18:38;;;;;;;7.78;6.30;;;18.80;99.90;;;;;;7406063;19;20010;-90
2022/06/05 09:21:18;;;;;;;8.57;6.90;;;18.90;99.90;;;;;;7405368;19;20007;-89
2022/06/05 09:24:04;;;;;;;9.75;6.82;;;19.00;99.90;;;;;;7404040;19;20046;-88
2022/06/05 09:26:47;;;;;;;9.00;7.03;;;18.90;99.90;;;;;;7404679;19;20034;-89
2022/06/05 09:29:37;;;;;;;10.93;7.15;;;18.90;99.90;;;;;;7407823;19;20070;-90
2022/06/05 09:32:33;;;;;;;9.75;6.80;;;19.10;99.90;;;;;;7401450;19;20039;-88
2022/06/05 09:35:10;;;;;;;9.63;6.60;;;19.10;99.90;;;;;;7402720;19;20081;-88
2022/06/05 09:37:51;;;;;;;9.73;6.88;;;19.30;99.90;;;;;;7402649;19;20007;-89
2022/06/05 09:40:30;;;;;;;12.57;6.82;;;19.30;99.90;;;;;;7405815;19;20010;-89
2022/06/05 09:43:24;;;;;;;8.50;6.70;;;19.40;99.90;;;;;;7401032;19;20006;-89
2022/06/05 09:46:09;;;;;;;8.30;6.88;;;19.50;99.90;;;;;;7401476;19;20085;-89
2022/06/05 09:48:47;;;;;;;9.35;6.80;;;19.60;99.90;;;;;;7402783;19;20014;-87
2022/06/05 09:51:20;;;;;;;8.57;6.68;;;19.50;99.90;;;;;;7400030;19;20010;-89
2022/06/05 09:53:59;;;;;;;8.80;6.97;;;19.60;99.90;;;;;;7400819;19;20006;-89
2022/06/05 09:59:32;;;;;;;8.38;6.93;;;20.00;99.90;;;;;;7399646;19;20022;-89
2022/06/05 10:02:07;;;;;;;8.13;6.78;;;19.90;99.90;;;;;;7399528;19;20034;-88
2022/06/05 10:04:39;;;;;;;13.38;7.38;;;20.10;99.90;;;;;;7397887;19;20017;-88
2022/06/05 10:07:19;;;;;;;10.20;6.68;;;20.30;99.90;;;;;;7398131;19;20010;-88
2022/06/05 10:09:50;;;;;;;9.13;6.57;;;20.20;99.90;;;;;;7402437;19;20477;-88
2022/06/05 10:12:28;;;;;;;8.43;7.03;;;20.30;99.90;;;;;;7399398;19;20508;-88
2022/06/05 10:15:03;;;;;;;7.80;6.57;;;20.40;99.90;;;;;;7402818;19;20025;-88
2022/06/05 10:17:51;;;;;;;10.88;6.30;;;18.70;99.90;;;;;;7398311;19;20015;-88
2022/06/05 10:20:45;;;;;;;8.35;6.53;;;20.50;99.90;;;;;;7399685;19;20090;-88
2022/06/05 10:23:26;;;;;;;8.57;5.82;;;20.60;99.90;;;;;;7399421;19;20018;-88
2022/06/05 10:26:06;;;;;;;10.55;6.68;;;20.80;99.90;;;;;;7402464;19;20038;-89
2022/06/05 10:28:42;;;;;;;8.38;6.57;;;20.80;99.90;;;;;;7403437;19;20529;-89
2022/06/05 10:31:16;;;;;;;7.05;6.28;;;20.80;99.90;;;;;;7399608;19;20031;-88
2022/06/05 10:33:53;;;;;;;7.25;6.20;;;21.00;99.90;;;;;;7397260;19;20014;-88
2022/06/05 10:36:27;;;;;;;7.15;5.97;;;21.80;99.90;;;;;;7402273;19;20035;-89
2022/06/05 10:39:10;;;;;;;8.30;6.07;;;20.90;99.90;;;;;;7399844;19;20485;-88
2022/06/05 10:41:45;;;;;;;6.85;6.15;;;20.20;99.90;;;;;;7400956;19;20010;-87
2022/06/05 10:44:34;;;;;;;6.87;5.93;;;21.10;99.90;;;;;;7400208;19;20081;-87
2022/06/05 10:47:14;;;;;;;7.13;6.22;;;21.20;99.90;;;;;;7405186;19;20042;-89
2022/06/05 10:49:49;;;;;;;8.32;6.15;;;21.50;99.90;;;;;;7401843;19;20014;-87
2022/06/05 10:52:31;;;;;;;8.15;6.30;;;21.90;99.90;;;;;;7400699;19;20017;-89
2022/06/05 10:55:21;;;;;;;8.43;5.65;;;21.40;99.90;;;;;;7403290;19;20002;-88
2022/06/05 10:58:05;;;;;;;7.93;6.10;;;21.50;99.90;;;;;;7399659;19;20501;-89
2022/06/05 11:00:56;;;;;;;7.22;5.55;;;21.60;99.90;;;;;;7391556;19;20028;-87
2022/06/05 11:03:36;;;;;;;6.57;5.88;;;21.70;99.90;;;;;;7393624;19;20091;-89
2022/06/05 11:06:38;;;;;;;8.85;5.97;;;21.80;99.90;;;;;;7394340;19;20537;-89
2022/06/05 11:09:28;;;;;;;7.70;5.17;;;21.70;99.90;;;;;;7393508;19;20500;-89
2022/06/05 11:14:59;;;;;;;7.22;5.90;;;21.70;99.90;;;;;;7395105;19;20017;-89
2022/06/05 11:17:41;;;;;;;7.72;5.53;;;21.70;99.90;;;;;;7399425;19;20486;-89
2022/06/05 11:20:17;;;;;;;8.65;5.90;;;21.80;99.60;;;;;;7400443;19;20010;-88
2022/06/05 11:22:58;;;;;;;6.90;5.93;;;21.70;99.20;;;;;;7401398;19;20141;-89
2022/06/05 11:25:33;;;;;;;6.18;5.57;;;21.90;99.50;;;;;;7402195;19;20035;-89
2022/06/05 11:28:40;;;;;;;6.88;5.78;;;21.90;99.70;;;;;;7401089;19;20478;-89
2022/06/05 11:31:23;;;;;;;7.00;5.55;;;21.90;99.10;;;;;;7398870;19;20018;-89
2022/06/05 11:34:07;;;;;;;7.28;5.80;;;21.90;99.10;;;;;;7398222;19;20038;-89
2022/06/05 11:36:47;;;;;;;7.97;5.60;;;22.10;98.80;;;;;;7400493;19;20010;-90
2022/06/05 11:39:32;;;;;;;7.97;6.00;;;22.20;99.40;;;;;;7402969;19;20018;-89
2022/06/05 11:42:19;;;;;;;9.60;5.55;;;22.00;99.10;;;;;;7400953;19;20074;-90
2022/06/05 11:44:54;;;;;;;6.63;5.63;;;22.10;98.90;;;;;;7402709;19;20007;-90
2022/06/05 11:47:42;;;;;;;9.07;5.75;;;22.10;99.00;;;;;;7400104;19;20006;-90
2022/06/05 11:50:29;;;;;;;10.18;5.32;;;22.20;98.90;;;;;;7400116;19;20013;-89
2022/06/05 11:53:14;;;;;;;7.05;5.28;;;22.20;99.50;;;;;;7399333;19;20010;-89
2022/06/05 11:55:49;;;;;;;7.63;5.65;;;22.10;99.40;;;;;;7400311;19;20023;-90
2022/06/05 11:58:27;;;;;;;6.57;5.90;;;22.30;99.00;;;;;;7399915;19;20393;-90
2022/06/05 12:01:06;;;;;;;7.07;5.70;;;24.30;99.20;;;;;;7397971;19;20034;-89
2022/06/05 12:03:41;;;;;;;6.45;5.40;;;22.40;98.80;;;;;;7400196;19;20031;-89
2022/06/05 12:06:23;;;;;;;6.57;5.55;;;22.40;98.80;;;;;;7400203;19;20042;-89
2022/06/05 12:08:59;;;;;;;10.35;6.00;;;22.40;98.70;;;;;;7400199;19;20398;-90
2022/06/05 12:11:42;;;;;;;9.15;5.70;;;22.30;99.10;;;;;;7402121;19;20089;-89
2022/06/05 12:14:22;;;;;;;8.05;5.85;;;22.30;98.50;;;;;;7400956;19;20019;-89
2022/06/05 12:17:01;;;;;;;6.20;5.57;;;21.40;98.90;;;;;;7399087;19;20038;-90
2022/06/05 12:19:48;;;;;;;6.85;5.40;;;22.10;99.00;;;;;;7401990;19;20335;-89
2022/06/05 12:22:27;;;;;;;6.30;5.70;;;22.40;98.90;;;;;;7399927;19;20425;-89
2022/06/05 12:25:07;;;;;;;7.75;5.55;;;22.10;98.90;;;;;;7399884;19;20011;-89
2022/06/05 12:27:57;;;;;;;7.20;5.53;;;22.20;98.30;;;;;;7399293;19;20021;-89
2022/06/05 12:30:32;;;;;;;9.27;5.70;;;22.20;98.40;;;;;;7399906;19;20014;-89
2022/06/05 12:33:18;;;;;;;7.72;5.97;;;22.00;98.20;;;;;;7398998;19;20006;-88
2022/06/05 12:35:59;;;;;;;6.20;5.38;;;22.00;98.20;;;;;;7401965;19;20018;-89
2022/06/05 12:38:40;;;;;;;6.65;6.03;;;22.10;97.90;;;;;;7398542;19;20010;-89
2022/06/05 12:41:20;;;;;;;9.85;5.60;;;22.00;98.40;;;;;;7399536;19;20015;-89
2022/06/05 12:44:14;;;;;;;6.45;5.25;;;22.00;98.30;;;;;;7399771;19;20010;-89
2022/06/05 12:46:53;;;;;;;6.47;5.80;;;21.90;97.80;;;;;;7401922;19;20030;-89
2022/06/05 12:49:30;;;;;;;6.75;5.55;;;22.00;98.00;;;;;;7399647;19;20025;-88
2022/06/05 12:52:25;;;;;;;7.57;5.45;;;22.00;98.70;;;;;;7400049;19;20011;-89
2022/06/05 12:55:02;;;;;;;6.20;5.60;;;22.10;98.80;;;;;;7400495;19;20007;-87
2022/06/05 12:57:39;;;;;;;6.15;5.38;;;21.90;98.80;;;;;;7405587;19;20533;-88
2022/06/05 13:00:20;;;;;;;6.03;5.45;;;22.00;99.10;;;;;;7404707;19;20372;-88
2022/06/05 13:02:57;;;;;;;7.10;5.70;;;22.10;98.90;;;;;;7405610;19;20050;-87
2022/06/05 13:05:38;;;;;;;6.90;5.47;;;22.20;98.90;;;;;;7405883;19;20010;-88
2022/06/05 13:08:15;;;;;;;5.82;5.13;;;22.10;98.40;;;;;;7406961;19;20007;-88
2022/06/05 13:10:57;;;;;;;6.63;5.63;;;22.10;98.10;;;;;;7410828;19;20037;-88
2022/06/05 13:13:40;;;;;;;6.82;5.53;;;22.00;98.50;;;;;;7407642;19;20018;-87
2022/06/05 13:16:20;;;;;;;7.07;4.95;;;22.10;98.90;;;;;;7406211;19;20010;-87
2022/06/05 13:19:18;;;;;;;6.03;5.43;;;21.90;98.70;;;;;;7406561;19;20006;-88
2022/06/05 13:21:56;;;;;;;6.20;5.60;;;21.90;98.50;;;;;;7405314;19;20022;-88
2022/06/05 13:24:35;;;;;;;6.68;5.72;;;22.00;98.90;;;;;;7401972;19;20015;-86
2022/06/05 13:27:20;;;;;;;5.95;5.35;;;21.90;98.80;;;;;;7404560;19;20029;-88
2022/06/05 13:30:01;;;;;;;7.00;5.28;;;22.10;98.40;;;;;;7407094;19;20483;-88
2022/06/05 13:32:53;;;;;;;6.10;5.30;;;22.00;98.50;;;;;;7402125;19;20038;-89
2022/06/05 13:35:32;;;;;;;5.95;5.35;;;22.10;98.30;;;;;;7402816;19;20549;-88
2022/06/05 13:38:12;;;;;;;6.28;5.10;;;22.10;98.70;;;;;;7404170;19;20027;-89
2022/06/05 13:40:48;;;;;;;5.70;5.10;;;22.30;98.90;;;;;;7402648;19;20327;-88
2022/06/05 13:43:24;;;;;;;6.10;5.32;;;22.20;98.60;;;;;;7406633;19;20049;-89
2022/06/05 13:46:11;;;;;;;6.90;5.15;;;22.30;99.10;;;;;;7407149;19;20481;-88